createdAt,value
2022-07-25T00:00:22.157Z,6.90
2022-07-25T00:05:27.824Z,8.65
2022-07-25T00:10:32.001Z,9.30
2022-07-25T00:15:36.159Z,9.10
2022-07-25T00:20:41.602Z,7.20
2022-07-25T00:25:44.976Z,8.73
2022-07-25T00:30:49.171Z,12.73
2022-07-25T00:40:58.482Z,12.18
2022-07-25T00:46:03.001Z,10.98
2022-07-25T00:51:09.006Z,9.13
2022-07-25T00:56:13.150Z,8.43
2022-07-25T01:01:17.203Z,7.57
2022-07-25T01:06:24.856Z,8.20
2022-07-25T01:11:29.342Z,11.32
2022-07-25T01:21:41.588Z,8.47
2022-07-25T01:26:45.039Z,7.88
2022-07-25T01:31:49.257Z,7.13
2022-07-25T01:36:54.781Z,10.02
2022-07-25T01:41:58.895Z,9.98
2022-07-25T01:47:02.850Z,10.73
2022-07-25T01:52:08.670Z,9.75
2022-07-25T01:57:13.007Z,8.18
2022-07-25T02:07:22.543Z,7.83
2022-07-25T02:12:25.928Z,12.70
2022-07-25T02:17:30.892Z,13.73
2022-07-25T02:22:35.834Z,9.85
2022-07-25T02:27:40.127Z,9.98
2022-07-25T02:32:43.444Z,10.45
2022-07-25T02:37:49.062Z,8.30
2022-07-25T02:42:52.403Z,13.85
2022-07-25T02:47:56.467Z,9.98
2022-07-25T02:58:05.306Z,10.80
2022-07-25T03:03:08.674Z,9.50
2022-07-25T03:08:14.274Z,10.03
2022-07-25T03:13:17.649Z,11.02
2022-07-25T03:18:21.701Z,10.13
2022-07-25T03:23:27.430Z,7.88
2022-07-25T03:28:31.763Z,16.50
2022-07-25T03:33:35.123Z,11.18
2022-07-25T03:38:40.644Z,9.57
2022-07-25T03:43:44.449Z,7.32
2022-07-25T03:48:48.678Z,8.55
2022-07-25T03:54:06.979Z,8.60
2022-07-25T03:59:13.507Z,7.35
2022-07-25T04:04:17.295Z,8.20
2022-07-25T04:09:22.998Z,11.90
2022-07-25T04:14:26.493Z,6.80
2022-07-25T04:19:30.573Z,9.88
2022-07-25T04:24:35.365Z,7.78
2022-07-25T04:29:39.923Z,7.00
2022-07-25T04:34:43.791Z,6.68
2022-07-25T04:39:49.410Z,8.30
2022-07-25T04:44:52.742Z,8.80
2022-07-25T04:49:57.497Z,6.80
2022-07-25T04:55:02.331Z,7.43
2022-07-25T05:00:10.256Z,7.40
2022-07-25T05:05:21.629Z,7.63
2022-07-25T05:10:28.372Z,7.43
2022-07-25T05:15:32.843Z,7.32
2022-07-25T05:20:36.208Z,8.65
2022-07-25T05:25:40.941Z,7.28
2022-07-25T05:30:44.346Z,6.28
2022-07-25T05:35:47.933Z,6.05
2022-07-25T05:40:53.312Z,6.85
2022-07-25T05:46:02.137Z,6.80
2022-07-25T05:51:05.471Z,6.70
2022-07-25T05:56:10.539Z,5.97
2022-07-25T06:01:14.974Z,8.00
2022-07-25T06:06:18.829Z,6.55
2022-07-25T06:11:23.538Z,6.70
2022-07-25T06:16:29.363Z,7.72
2022-07-25T06:21:32.879Z,6.55
2022-07-25T06:26:39.989Z,7.22
2022-07-25T06:31:47.284Z,6.35
2022-07-25T06:36:50.867Z,6.95
2022-07-25T06:41:56.014Z,8.88
2022-07-25T06:46:59.517Z,7.25
2022-07-25T06:52:03.526Z,8.13
2022-07-25T06:57:09.118Z,8.82
2022-07-25T07:02:12.824Z,7.40
2022-07-25T07:07:16.691Z,7.43
2022-07-25T07:12:21.408Z,7.70
2022-07-25T07:17:24.735Z,5.90
2022-07-25T07:22:28.114Z,5.97
2022-07-25T07:27:32.836Z,5.93
2022-07-25T07:32:36.239Z,5.88
2022-07-25T07:37:43.396Z,5.38
2022-07-25T07:42:50.311Z,4.75
2022-07-25T07:47:55.094Z,4.20
2022-07-25T07:52:59.517Z,5.28
2022-07-25T07:58:04.451Z,5.38
2022-07-25T08:03:08.950Z,5.03
2022-07-25T08:08:13.861Z,5.50
2022-07-25T08:13:20.642Z,7.78
2022-07-25T08:18:23.970Z,5.47
2022-07-25T08:23:28.954Z,5.28
2022-07-25T08:28:33.745Z,5.30
2022-07-25T08:33:37.151Z,6.00
2022-07-25T08:38:40.576Z,8.55
2022-07-25T08:43:48.676Z,6.03
2022-07-25T08:48:53.320Z,6.82
2022-07-25T08:53:57.368Z,5.55
2022-07-25T08:59:02.215Z,7.95
2022-07-25T09:04:05.799Z,8.23
2022-07-25T09:09:09.360Z,6.00
2022-07-25T09:14:15.351Z,5.55
2022-07-25T09:19:21.228Z,6.25
2022-07-25T09:24:24.754Z,5.70
2022-07-25T09:29:31.503Z,6.35
2022-07-25T09:34:39.173Z,5.18
2022-07-25T09:39:46.917Z,11.50
2022-07-25T09:45:04.169Z,5.30
2022-07-25T09:50:09.465Z,4.20
2022-07-25T09:55:14.262Z,6.93
2022-07-25T10:00:23.450Z,9.73
2022-07-25T10:05:36.299Z,4.53
2022-07-25T10:10:41.800Z,4.15
2022-07-25T10:15:49.789Z,4.57
2022-07-25T10:20:54.939Z,4.65
2022-07-25T10:26:08.578Z,4.15
2022-07-25T10:31:26.942Z,5.03
2022-07-25T10:36:43.857Z,5.28
2022-07-25T10:41:53.373Z,4.68
2022-07-25T10:47:08.641Z,4.82
2022-07-25T10:52:17.587Z,6.13
2022-07-25T10:57:20.908Z,5.38
2022-07-25T11:02:25.798Z,5.43
2022-07-25T11:07:36.095Z,4.88
2022-07-25T11:12:40.848Z,4.45
2022-07-25T11:17:52.515Z,5.10
2022-07-25T11:22:57.175Z,5.57
2022-07-25T11:28:02.204Z,4.40
2022-07-25T11:33:06.965Z,4.40
2022-07-25T11:38:15.655Z,5.45
2022-07-25T11:43:22.645Z,4.85
2022-07-25T11:48:37.051Z,4.20
2022-07-25T11:53:42.202Z,4.45
2022-07-25T11:58:51.851Z,4.22
2022-07-25T12:03:56.569Z,4.63
2022-07-25T12:09:00.716Z,4.43
2022-07-25T12:14:05.730Z,3.90
2022-07-25T12:19:21.490Z,4.00
2022-07-25T12:24:24.823Z,5.53
2022-07-25T12:29:28.208Z,4.45
2022-07-25T12:34:34.597Z,5.35
2022-07-25T12:39:38.008Z,5.45
2022-07-25T12:44:41.545Z,4.20
2022-07-25T12:49:46.340Z,5.40
2022-07-25T12:54:49.756Z,6.32
2022-07-25T12:59:54.199Z,5.15
2022-07-25T13:04:58.897Z,5.47
2022-07-25T13:10:03.766Z,4.13
2022-07-25T13:15:08.286Z,5.68
2022-07-25T13:20:13.778Z,7.00
2022-07-25T13:25:17.212Z,4.80
2022-07-25T13:30:20.546Z,5.30
2022-07-25T13:35:33.746Z,4.75
2022-07-25T13:40:42.113Z,5.70
2022-07-25T13:45:45.559Z,6.13
2022-07-25T13:50:50.357Z,5.05
2022-07-25T13:55:53.888Z,3.75
2022-07-25T14:00:57.291Z,4.32
2022-07-25T14:06:02.123Z,4.50
2022-07-25T14:11:06.188Z,4.65
2022-07-25T14:16:09.643Z,3.53
2022-07-25T14:21:14.646Z,5.93
2022-07-25T14:26:18.024Z,5.55
2022-07-25T14:31:21.726Z,3.50
2022-07-25T14:36:26.520Z,3.67
2022-07-25T14:41:29.928Z,4.43
2022-07-25T14:46:33.443Z,4.25
2022-07-25T14:51:38.304Z,4.20
2022-07-25T14:56:41.864Z,3.83
2022-07-25T15:01:45.225Z,6.78
2022-07-25T15:11:53.312Z,4.40
2022-07-25T15:22:02.241Z,6.35
2022-07-25T15:27:05.640Z,6.40
2022-07-25T15:37:14.468Z,4.68
2022-07-25T15:42:18.256Z,5.72
2022-07-25T15:52:26.764Z,5.03
2022-07-25T15:57:30.194Z,5.97
2022-07-25T16:02:33.711Z,5.65
2022-07-25T16:12:41.829Z,5.18
2022-07-25T16:17:45.155Z,5.63
2022-07-25T16:22:51.507Z,4.53
2022-07-25T16:27:55.185Z,5.70
2022-07-25T16:32:58.702Z,4.78
2022-07-25T16:43:07.062Z,7.15
2022-07-25T16:53:15.331Z,4.90
2022-07-25T16:58:19.373Z,5.55
2022-07-25T17:03:23.007Z,5.97
2022-07-25T17:08:27.874Z,7.30
2022-07-25T17:13:31.646Z,5.03
2022-07-25T17:18:35.065Z,5.22
2022-07-25T17:23:40.101Z,6.55
2022-07-25T17:28:43.628Z,5.70
2022-07-25T17:33:47.082Z,4.85
2022-07-25T17:38:51.908Z,4.82
2022-07-25T17:43:55.452Z,6.97
2022-07-25T17:48:59.230Z,5.72
2022-07-25T17:54:04.509Z,4.82
2022-07-25T17:59:08.695Z,7.13
2022-07-25T18:04:12.086Z,6.60
2022-07-25T18:09:17.181Z,5.93
2022-07-25T18:14:20.629Z,5.15
2022-07-25T18:19:25.268Z,5.22
2022-07-25T18:24:30.872Z,6.85
2022-07-25T18:29:37.277Z,7.00
2022-07-25T18:34:40.726Z,7.03
2022-07-25T18:39:45.697Z,5.80
2022-07-25T18:44:49.267Z,6.70
2022-07-25T18:49:53.781Z,7.28
2022-07-25T18:54:59.008Z,7.70
2022-07-25T19:00:03.436Z,7.22
2022-07-25T19:05:09.562Z,9.07
2022-07-25T19:10:14.616Z,6.90
2022-07-25T19:15:17.928Z,6.72
2022-07-25T19:20:21.331Z,7.03
2022-07-25T19:25:26.258Z,7.70
2022-07-25T19:30:30.492Z,10.63
2022-07-25T19:35:36.303Z,8.18
2022-07-25T19:40:41.156Z,7.65
2022-07-25T19:45:44.691Z,8.85
2022-07-25T19:50:48.470Z,8.18
2022-07-25T19:55:53.334Z,11.48
2022-07-25T20:00:56.703Z,9.55
2022-07-25T20:06:03.423Z,7.63
2022-07-25T20:11:11.835Z,9.63
2022-07-25T20:16:15.263Z,7.97
2022-07-25T20:21:18.623Z,10.52
2022-07-25T20:26:23.413Z,7.47
2022-07-25T20:31:26.883Z,9.27
2022-07-25T20:36:30.238Z,9.27
2022-07-25T20:41:34.971Z,12.27
2022-07-25T20:46:39.202Z,10.02
2022-07-25T20:51:42.637Z,10.02
2022-07-25T20:56:47.466Z,10.67
2022-07-25T21:01:51.002Z,10.77
2022-07-25T21:06:56.621Z,11.70
2022-07-25T21:12:02.501Z,9.52
2022-07-25T21:17:06.125Z,8.85
2022-07-25T21:22:09.761Z,11.38
2022-07-25T21:27:15.076Z,11.13
2022-07-25T21:32:21.465Z,9.18
2022-07-25T21:37:25.047Z,11.02
2022-07-25T21:42:29.880Z,9.68
2022-07-25T21:47:33.314Z,9.68
2022-07-25T21:52:36.910Z,10.63
2022-07-25T21:57:43.270Z,11.25
2022-07-25T22:02:48.789Z,12.45
2022-07-25T22:07:52.499Z,11.00
2022-07-25T22:12:57.299Z,10.30
2022-07-25T22:18:00.639Z,11.90
2022-07-25T22:23:04.571Z,12.10
2022-07-25T22:28:14.167Z,10.98
2022-07-25T22:33:17.919Z,15.82
2022-07-25T22:38:21.261Z,11.53
2022-07-25T22:43:56.500Z,11.90
2022-07-25T22:48:49.370Z,11.93
2022-07-25T22:53:52.751Z,11.50
2022-07-25T22:58:57.779Z,11.53
2022-07-25T23:04:01.193Z,13.50
2022-07-25T23:09:05.994Z,13.00
2022-07-25T23:14:10.936Z,12.60
2022-07-25T23:19:14.302Z,11.68
2022-07-25T23:24:17.624Z,12.47
2022-07-25T23:29:22.375Z,13.13
2022-07-25T23:34:25.716Z,11.77
2022-07-25T23:39:29.443Z,12.17
2022-07-25T23:44:34.164Z,13.68
2022-07-25T23:49:39.915Z,13.07
2022-07-25T23:54:43.314Z,12.10
2022-07-25T23:59:48.939Z,14.83
